createdAt,value
2023-04-15T00:00:31.287Z,100061.28
2023-04-15T00:02:33.014Z,100056.31
2023-04-15T00:04:34.720Z,100066.09
2023-04-15T00:06:37.453Z,100051.50
2023-04-15T00:08:39.270Z,100060.13
2023-04-15T00:10:40.910Z,100056.63
2023-04-15T00:12:42.293Z,100062.09
2023-04-15T00:14:43.769Z,100041.06
2023-04-15T00:16:45.374Z,100057.97
2023-04-15T00:18:46.883Z,100061.78
2023-04-15T00:20:48.487Z,100051.50
2023-04-15T00:22:50.039Z,100039.22
2023-04-15T00:24:55.055Z,100035.75
2023-04-15T00:26:56.844Z,100027.94
2023-04-15T00:28:58.685Z,100009.72
2023-04-15T00:31:00.278Z,100034.09
2023-04-15T00:33:02.001Z,100035.78
2023-04-15T00:35:03.666Z,100040.56
2023-04-15T00:37:05.102Z,100028.97
2023-04-15T00:39:06.852Z,99997.13
2023-04-15T00:41:09.488Z,100016.38
2023-04-15T00:43:10.896Z,100030.91
2023-04-15T00:45:12.583Z,100043.88
2023-04-15T00:47:15.244Z,100045.84
2023-04-15T00:49:16.750Z,100038.88
2023-04-15T00:51:18.319Z,100041.53
2023-04-15T00:53:19.759Z,100046.00
2023-04-15T00:55:21.240Z,100040.53
2023-04-15T00:57:22.750Z,100028.91
2023-04-15T00:59:24.196Z,100037.66
2023-04-15T01:01:26.575Z,100047.16
2023-04-15T01:03:29.885Z,100040.53
2023-04-15T01:05:32.352Z,100034.09
2023-04-15T01:07:33.792Z,100034.09
2023-04-15T01:09:35.796Z,100040.34
2023-04-15T01:11:37.520Z,100033.53
2023-04-15T01:13:39.171Z,100029.25
2023-04-15T01:15:40.867Z,100034.94
2023-04-15T01:17:42.636Z,100031.59
2023-04-15T01:19:44.102Z,100016.34
2023-04-15T01:21:45.654Z,100034.41
2023-04-15T01:23:47.874Z,100032.25
2023-04-15T01:25:50.206Z,100039.38
2023-04-15T01:27:51.760Z,100041.66
2023-04-15T01:29:53.194Z,100039.03
2023-04-15T01:31:56.248Z,100023.78
2023-04-15T01:33:58.647Z,100014.81
2023-04-15T01:36:00.174Z,100021.25
2023-04-15T01:38:11.746Z,100046.47
2023-04-15T01:40:13.228Z,100024.56
2023-04-15T01:42:14.789Z,100036.06
2023-04-15T01:44:16.509Z,100022.16
2023-04-15T01:46:18.067Z,100041.41
2023-04-15T01:48:19.740Z,100032.00
2023-04-15T01:50:21.365Z,100036.81
2023-04-15T01:52:22.760Z,100034.97
2023-04-15T01:54:24.178Z,100029.63
2023-04-15T01:56:25.664Z,100025.19
2023-04-15T01:58:27.144Z,100029.13
2023-04-15T02:00:28.888Z,100042.63
2023-04-15T02:02:30.400Z,100038.47
2023-04-15T02:04:32.224Z,100035.69
2023-04-15T02:06:33.652Z,100048.44
2023-04-15T02:08:35.131Z,100043.66
2023-04-15T02:10:36.630Z,100038.16
2023-04-15T02:12:38.043Z,100042.66
2023-04-15T02:14:39.577Z,100021.28
2023-04-15T02:16:41.253Z,100022.28
2023-04-15T02:18:43.846Z,100037.19
2023-04-15T02:20:45.233Z,100033.66
2023-04-15T02:22:47.099Z,100038.00
2023-04-15T02:24:48.758Z,100046.78
2023-04-15T02:26:50.162Z,100045.31
2023-04-15T02:28:51.590Z,100033.69
2023-04-15T02:30:53.458Z,100041.13
2023-04-15T02:32:55.095Z,100044.53
2023-04-15T02:34:56.603Z,100031.72
2023-04-15T02:36:58.011Z,100028.59
2023-04-15T02:38:59.676Z,100047.50
2023-04-15T02:41:01.262Z,100046.81
2023-04-15T02:43:03.744Z,100049.59
2023-04-15T02:45:06.244Z,100048.34
2023-04-15T02:47:07.874Z,100024.47
2023-04-15T02:49:09.293Z,100044.38
2023-04-15T02:51:14.950Z,100039.38
2023-04-15T02:53:16.379Z,100034.41
2023-04-15T02:55:18.788Z,100046.72
2023-04-15T02:57:20.170Z,100056.31
2023-04-15T02:59:22.165Z,100046.19
2023-04-15T03:01:23.787Z,100025.31
2023-04-15T03:03:25.257Z,100037.75
2023-04-15T03:05:26.957Z,100052.19
2023-04-15T03:07:28.712Z,100057.66
2023-04-15T03:09:30.099Z,100061.97
2023-04-15T03:11:33.616Z,100063.63
2023-04-15T03:13:36.035Z,100043.38
2023-04-15T03:15:37.465Z,100057.66
2023-04-15T03:17:39.059Z,100058.47
2023-04-15T03:19:40.783Z,100049.50
2023-04-15T03:21:42.182Z,100059.28
2023-04-15T03:23:43.594Z,100022.31
2023-04-15T03:25:45.361Z,100040.88
2023-04-15T03:27:46.978Z,100061.78
2023-04-15T03:29:48.394Z,100063.09
2023-04-15T03:31:50.016Z,100049.19
2023-04-15T03:33:51.417Z,100060.13
2023-04-15T03:35:53.326Z,100060.44
2023-04-15T03:37:55.072Z,100047.38
2023-04-15T03:39:56.467Z,100049.34
2023-04-15T03:41:58.888Z,100054.66
2023-04-15T03:44:00.625Z,100046.69
2023-04-15T03:46:02.307Z,100054.81
2023-04-15T03:48:16.510Z,100050.84
2023-04-15T03:50:18.845Z,100054.16
2023-04-15T03:52:20.246Z,100063.41
2023-04-15T03:54:21.632Z,100062.09
2023-04-15T03:56:23.515Z,100059.59
2023-04-15T03:58:24.951Z,100062.91
2023-04-15T04:00:26.397Z,100069.22
2023-04-15T04:02:28.383Z,100054.97
2023-04-15T04:04:30.217Z,100078.69
2023-04-15T04:06:31.763Z,100068.25
2023-04-15T04:08:33.659Z,100070.72
2023-04-15T04:10:35.083Z,100062.78
2023-04-15T04:12:36.500Z,100074.06
2023-04-15T04:14:38.251Z,100069.22
2023-04-15T04:16:39.718Z,100059.97
2023-04-15T04:18:41.155Z,100084.00
2023-04-15T04:20:42.789Z,100079.69
2023-04-15T04:22:44.268Z,100070.41
2023-04-15T04:24:45.701Z,100076.53
2023-04-15T04:26:47.260Z,100055.63
2023-04-15T04:28:48.670Z,100068.19
2023-04-15T04:30:50.260Z,100067.19
2023-04-15T04:32:52.011Z,100081.97
2023-04-15T04:34:53.935Z,100078.63
2023-04-15T04:36:55.460Z,100065.63
2023-04-15T04:38:57.009Z,100069.00
2023-04-15T04:40:58.495Z,100062.81
2023-04-15T04:43:00.295Z,100077.34
2023-04-15T04:45:02.059Z,100072.69
2023-04-15T04:47:03.546Z,100082.31
2023-04-15T04:49:05.135Z,100077.00
2023-04-15T04:51:07.309Z,100071.84
2023-04-15T04:53:08.753Z,100076.16
2023-04-15T04:55:10.297Z,100063.38
2023-04-15T04:57:11.832Z,100078.97
2023-04-15T04:59:13.259Z,100075.66
2023-04-15T05:01:14.996Z,100064.38
2023-04-15T05:03:16.942Z,100084.94
2023-04-15T05:05:18.695Z,100083.97
2023-04-15T05:07:20.242Z,100081.28
2023-04-15T05:09:21.790Z,100084.56
2023-04-15T05:11:23.190Z,100062.56
2023-04-15T05:13:24.615Z,100080.47
2023-04-15T05:15:26.723Z,100078.00
2023-04-15T05:17:28.160Z,100085.47
2023-04-15T05:19:29.574Z,100086.63
2023-04-15T05:21:31.414Z,100083.97
2023-04-15T05:23:32.892Z,100088.28
2023-04-15T05:25:34.342Z,100089.44
2023-04-15T05:27:35.992Z,100082.47
2023-04-15T05:29:37.392Z,100089.13
2023-04-15T05:31:38.960Z,100090.44
2023-04-15T05:33:40.697Z,100084.28
2023-04-15T05:35:42.115Z,100086.97
2023-04-15T05:37:43.684Z,100092.59
2023-04-15T05:39:45.386Z,100086.44
2023-04-15T05:41:46.801Z,100094.28
2023-04-15T05:43:48.275Z,100089.28
2023-04-15T05:45:49.914Z,100087.47
2023-04-15T05:47:51.342Z,100078.69
2023-04-15T05:49:52.768Z,100093.28
2023-04-15T05:51:54.370Z,100093.44
2023-04-15T05:53:55.810Z,100080.81
2023-04-15T05:55:57.230Z,100080.34
2023-04-15T05:57:58.805Z,100092.94
2023-04-15T06:00:00.232Z,100098.63
2023-04-15T06:02:01.662Z,100107.06
2023-04-15T06:04:03.414Z,100095.94
2023-04-15T06:06:04.972Z,100087.31
2023-04-15T06:08:06.460Z,100091.28
2023-04-15T06:10:08.446Z,100101.91
2023-04-15T06:12:09.878Z,100105.56
2023-04-15T06:14:11.269Z,100101.91
2023-04-15T06:16:12.994Z,100080.19
2023-04-15T06:18:14.381Z,100103.72
2023-04-15T06:20:15.871Z,100098.94
2023-04-15T06:22:17.530Z,100108.22
2023-04-15T06:24:18.978Z,100109.22
2023-04-15T06:26:20.372Z,100078.66
2023-04-15T06:28:22.118Z,100116.66
2023-04-15T06:30:24.492Z,100108.56
2023-04-15T06:32:26.560Z,100118.78
2023-04-15T06:34:28.263Z,100107.56
2023-04-15T06:36:29.688Z,100120.19
2023-04-15T06:38:31.148Z,100110.22
2023-04-15T06:40:32.862Z,100121.97
2023-04-15T06:42:35.113Z,100118.78
2023-04-15T06:44:36.821Z,100117.31
2023-04-15T06:46:38.533Z,100124.63
2023-04-15T06:48:39.976Z,100127.72
2023-04-15T06:50:41.431Z,100126.78
2023-04-15T06:52:43.541Z,100128.63
2023-04-15T06:54:44.965Z,100132.44
2023-04-15T06:56:46.346Z,100109.84
2023-04-15T06:58:48.085Z,100119.81
2023-04-15T07:00:49.741Z,100132.06
2023-04-15T07:02:51.366Z,100137.75
2023-04-15T07:04:52.948Z,100128.78
2023-04-15T07:06:54.585Z,100139.38
2023-04-15T07:08:56.027Z,100127.13
2023-04-15T07:10:57.657Z,100144.72
2023-04-15T07:12:59.076Z,100119.00
2023-04-15T07:15:00.578Z,100142.38
2023-04-15T07:17:02.368Z,100150.38
2023-04-15T07:19:04.139Z,100121.16
2023-04-15T07:21:05.891Z,100140.75
2023-04-15T07:23:07.537Z,100153.69
2023-04-15T07:25:09.203Z,100145.72
2023-04-15T07:27:10.676Z,100137.09
2023-04-15T07:29:12.451Z,100136.09
2023-04-15T07:31:13.971Z,100154.69
2023-04-15T07:33:15.415Z,100133.09
2023-04-15T07:35:17.022Z,100160.47
2023-04-15T07:37:18.439Z,100153.78
2023-04-15T07:39:19.854Z,100154.50
2023-04-15T07:41:21.717Z,100138.72
2023-04-15T07:43:23.149Z,100144.72
2023-04-15T07:45:24.662Z,100148.22
2023-04-15T07:47:26.188Z,100132.06
2023-04-15T07:49:27.608Z,100149.03
2023-04-15T07:51:29.077Z,100146.72
2023-04-15T07:53:30.529Z,100149.34
2023-04-15T07:55:31.905Z,100157.63
2023-04-15T07:57:33.315Z,100138.72
2023-04-15T07:59:34.823Z,100152.66
2023-04-15T08:01:36.547Z,100139.03
2023-04-15T08:03:38.218Z,100155.66
2023-04-15T08:05:39.723Z,100160.97
2023-04-15T08:07:41.379Z,100168.28
2023-04-15T08:09:42.772Z,100149.53
2023-04-15T08:11:45.419Z,100149.03
2023-04-15T08:13:48.254Z,100156.50
2023-04-15T08:16:13.220Z,100158.31
2023-04-15T08:18:14.859Z,100162.31
2023-04-15T08:20:16.386Z,100160.50
2023-04-15T08:22:18.496Z,100159.00
2023-04-15T08:24:20.870Z,100158.47
2023-04-15T08:26:22.768Z,100165.28
2023-04-15T08:28:24.224Z,100168.28
2023-04-15T08:30:25.767Z,100158.34
2023-04-15T08:32:27.205Z,100155.81
2023-04-15T08:34:29.564Z,100162.75
2023-04-15T08:36:31.335Z,100166.75
2023-04-15T08:38:33.044Z,100165.97
2023-04-15T08:40:45.469Z,100161.28
2023-04-15T08:42:52.996Z,100164.59
2023-04-15T08:44:55.378Z,100150.81
2023-04-15T08:46:57.161Z,100145.03
2023-04-15T08:48:58.940Z,100164.44
2023-04-15T08:51:01.204Z,100161.81
2023-04-15T08:53:02.744Z,100167.81
2023-04-15T08:55:04.590Z,100159.34
2023-04-15T08:57:06.433Z,100174.91
2023-04-15T08:59:08.778Z,100162.78
2023-04-15T09:01:12.023Z,100167.13
2023-04-15T09:03:13.965Z,100149.34
2023-04-15T09:05:15.495Z,100174.63
2023-04-15T09:07:17.129Z,100161.66
2023-04-15T09:09:18.633Z,100154.69
2023-04-15T09:11:22.094Z,100158.47
2023-04-15T09:13:23.496Z,100173.59
2023-04-15T09:15:26.338Z,100174.75
2023-04-15T09:17:27.827Z,100165.59
2023-04-15T09:19:29.875Z,100167.28
2023-04-15T09:21:31.968Z,100147.25
2023-04-15T09:23:33.379Z,100167.66
2023-04-15T09:25:35.215Z,100163.66
2023-04-15T09:27:36.859Z,100174.25
2023-04-15T09:29:38.417Z,100168.63
2023-04-15T09:31:40.975Z,100152.88
2023-04-15T09:33:55.483Z,100166.00
2023-04-15T09:36:01.991Z,100164.81
2023-04-15T09:38:04.982Z,100174.94
2023-04-15T09:40:06.942Z,100173.28
2023-04-15T09:42:08.411Z,100179.94
2023-04-15T09:44:26.434Z,100173.94
2023-04-15T09:46:44.423Z,100178.09
2023-04-15T09:48:46.145Z,100172.28
2023-04-15T09:50:51.120Z,100167.28
2023-04-15T09:52:52.554Z,100180.91
2023-04-15T09:54:57.034Z,100181.25
2023-04-15T09:57:05.454Z,100184.41
2023-04-15T09:59:07.437Z,100186.38
2023-04-15T10:01:08.878Z,100185.22
2023-04-15T10:03:10.906Z,100167.28
2023-04-15T10:05:15.414Z,100191.03
2023-04-15T10:07:18.152Z,100168.78
2023-04-15T10:09:19.982Z,100188.53
2023-04-15T10:11:22.243Z,100188.38
2023-04-15T10:13:25.516Z,100163.66
2023-04-15T10:15:28.984Z,100182.75
2023-04-15T10:17:32.484Z,100189.03
2023-04-15T10:19:37.074Z,100180.56
2023-04-15T10:21:39.285Z,100168.63
2023-04-15T10:23:41.163Z,100173.28
2023-04-15T10:25:42.941Z,100190.34
2023-04-15T10:27:45.198Z,100185.41
2023-04-15T10:29:48.676Z,100183.91
2023-04-15T10:31:50.666Z,100171.97
2023-04-15T10:33:52.965Z,100191.56
2023-04-15T10:35:55.904Z,100186.25
2023-04-15T10:37:57.376Z,100190.88
2023-04-15T10:39:58.868Z,100180.09
2023-04-15T10:42:10.519Z,100187.06
2023-04-15T10:44:11.992Z,100193.22
2023-04-15T10:46:13.664Z,100173.44
2023-04-15T10:48:16.310Z,100197.16
2023-04-15T10:50:19.146Z,100184.56
2023-04-15T10:52:28.827Z,100197.84
2023-04-15T10:54:30.210Z,100184.72
2023-04-15T10:56:32.203Z,100193.22
2023-04-15T10:58:43.665Z,100186.25
2023-04-15T11:00:51.190Z,100177.59
2023-04-15T11:02:57.067Z,100190.88
2023-04-15T11:04:58.916Z,100187.06
2023-04-15T11:07:07.231Z,100187.91
2023-04-15T11:09:08.625Z,100193.69
2023-04-15T11:11:10.228Z,100187.22
2023-04-15T11:13:11.560Z,100186.06
2023-04-15T11:15:27.923Z,100183.56
2023-04-15T11:17:29.636Z,100189.06
2023-04-15T11:19:38.646Z,100183.75
2023-04-15T11:21:40.131Z,100177.91
2023-04-15T11:23:43.444Z,100189.53
2023-04-15T11:25:45.404Z,100193.38
2023-04-15T11:27:46.795Z,100182.06
2023-04-15T11:29:48.268Z,100184.88
2023-04-15T11:31:49.762Z,100188.38
2023-04-15T11:34:00.382Z,100183.22
2023-04-15T11:36:01.957Z,100187.22
2023-04-15T11:38:09.504Z,100185.03
2023-04-15T11:40:11.476Z,100164.84
2023-04-15T11:42:18.872Z,100150.88
2023-04-15T11:44:20.284Z,100194.69
2023-04-15T11:46:22.008Z,100193.38
2023-04-15T11:48:26.546Z,100180.09
2023-04-15T11:50:27.923Z,100198.53
2023-04-15T11:52:29.368Z,100200.00
2023-04-15T11:54:30.965Z,100199.00
2023-04-15T11:56:32.396Z,100199.16
2023-04-15T11:58:35.668Z,100176.44
2023-04-15T12:00:38.344Z,100181.75
2023-04-15T12:02:39.892Z,100190.72
2023-04-15T12:04:41.448Z,100185.66
2023-04-15T12:06:43.286Z,100202.94
2023-04-15T12:08:59.640Z,100209.75
2023-04-15T12:11:01.084Z,100210.75
2023-04-15T12:13:06.957Z,100219.94
2023-04-15T12:15:09.846Z,100213.44
2023-04-15T12:17:11.269Z,100210.16
2023-04-15T12:19:14.475Z,100206.91
2023-04-15T12:21:15.898Z,100217.09
2023-04-15T12:23:19.993Z,100207.47
2023-04-15T12:25:34.452Z,100218.28
2023-04-15T12:27:35.894Z,100205.63
2023-04-15T12:29:38.683Z,100219.09
2023-04-15T12:31:52.873Z,100211.16
2023-04-15T12:33:58.851Z,100203.84
2023-04-15T12:36:00.340Z,100218.41
2023-04-15T12:38:01.952Z,100198.84
2023-04-15T12:40:03.534Z,100215.09
2023-04-15T12:42:05.498Z,100222.59
2023-04-15T12:44:07.493Z,100217.72
2023-04-15T12:46:08.954Z,100222.44
2023-04-15T12:48:10.414Z,100217.13
2023-04-15T12:50:12.004Z,100225.72
2023-04-15T12:52:13.438Z,100220.91
2023-04-15T12:54:14.826Z,100233.69
2023-04-15T12:56:16.645Z,100229.56
2023-04-15T12:58:18.025Z,100231.38
2023-04-15T13:00:19.487Z,100215.09
2023-04-15T13:02:21.039Z,100234.84
2023-04-15T13:04:22.844Z,100219.59
2023-04-15T13:06:24.452Z,100225.66
2023-04-15T13:08:25.861Z,100229.16
2023-04-15T13:10:27.263Z,100221.03
2023-04-15T13:12:28.689Z,100230.69
2023-04-15T13:14:30.893Z,100234.31
2023-04-15T13:16:33.394Z,100230.81
2023-04-15T13:18:34.851Z,100245.84
2023-04-15T13:20:36.281Z,100237.19
2023-04-15T13:22:37.755Z,100244.84
2023-04-15T13:24:39.164Z,100231.22
2023-04-15T13:26:40.880Z,100230.03
2023-04-15T13:28:42.374Z,100254.31
2023-04-15T13:30:43.827Z,100247.34
2023-04-15T13:32:45.559Z,100250.66
2023-04-15T13:34:47.019Z,100226.75
2023-04-15T13:36:48.449Z,100252.47
2023-04-15T13:38:51.443Z,100240.47
2023-04-15T13:40:53.156Z,100257.38
2023-04-15T13:42:54.608Z,100238.78
2023-04-15T13:44:56.367Z,100234.03
2023-04-15T13:46:57.872Z,100258.94
2023-04-15T13:48:59.647Z,100253.78
2023-04-15T13:51:01.377Z,100260.69
2023-04-15T13:53:02.817Z,100257.19
2023-04-15T13:55:18.239Z,100247.50
2023-04-15T13:57:24.033Z,100260.75
2023-04-15T13:59:25.511Z,100253.78
2023-04-15T14:01:26.947Z,100263.50
2023-04-15T14:03:28.801Z,100268.06
2023-04-15T14:05:30.499Z,100270.59
2023-04-15T14:07:32.001Z,100266.75
2023-04-15T14:09:35.362Z,100273.13
2023-04-15T14:11:38.830Z,100265.91
2023-04-15T14:13:40.245Z,100259.69
2023-04-15T14:15:41.960Z,100256.94
2023-04-15T14:17:43.475Z,100270.13
2023-04-15T14:19:44.969Z,100262.91
2023-04-15T14:21:46.714Z,100254.47
2023-04-15T14:23:48.101Z,100276.78
2023-04-15T14:25:50.694Z,100289.59
2023-04-15T14:27:52.408Z,100250.16
2023-04-15T14:29:53.842Z,100287.75
2023-04-15T14:32:04.062Z,100264.13
2023-04-15T14:34:13.724Z,100287.56
2023-04-15T14:36:15.144Z,100287.84
2023-04-15T14:38:16.635Z,100293.63
2023-04-15T14:40:19.619Z,100282.47
2023-04-15T14:42:21.009Z,100295.75
2023-04-15T14:44:22.469Z,100297.66
2023-04-15T14:46:23.969Z,100295.31
2023-04-15T14:48:25.749Z,100306.09
2023-04-15T14:50:27.175Z,100287.50
2023-04-15T14:52:28.748Z,100256.47
2023-04-15T14:54:30.180Z,100307.78
2023-04-15T14:56:31.698Z,100309.75
2023-04-15T14:58:33.307Z,100300.97
2023-04-15T15:00:35.257Z,100292.63
2023-04-15T15:02:40.550Z,100312.13
2023-04-15T15:04:42.316Z,100313.09
2023-04-15T15:06:43.781Z,100303.31
2023-04-15T15:08:46.256Z,100313.78
2023-04-15T15:10:49.315Z,100303.00
2023-04-15T15:12:51.170Z,100324.06
2023-04-15T15:14:52.588Z,100319.09
2023-04-15T15:16:54.187Z,100307.78
2023-04-15T15:18:55.648Z,100330.22
2023-04-15T15:20:57.050Z,100328.38
2023-04-15T15:22:58.660Z,100322.06
2023-04-15T15:25:00.035Z,100327.06
2023-04-15T15:27:02.183Z,100331.03
2023-04-15T15:29:03.920Z,100309.94
2023-04-15T15:31:06.037Z,100317.72
2023-04-15T15:33:07.608Z,100331.56
2023-04-15T15:35:09.832Z,100343.50
2023-04-15T15:37:11.654Z,100344.47
2023-04-15T15:39:13.111Z,100335.81
2023-04-15T15:41:14.693Z,100355.56
2023-04-15T15:43:16.298Z,100360.06
2023-04-15T15:45:17.822Z,100349.25
2023-04-15T15:47:21.397Z,100351.41
2023-04-15T15:49:22.848Z,100342.78
2023-04-15T15:51:24.301Z,100359.19
2023-04-15T15:53:25.911Z,100363.50
2023-04-15T15:55:27.460Z,100355.41
2023-04-15T15:57:28.868Z,100378.97
2023-04-15T15:59:30.519Z,100377.00
2023-04-15T16:01:31.902Z,100384.16
2023-04-15T16:03:33.452Z,100384.16
2023-04-15T16:05:35.674Z,100386.69
2023-04-15T16:07:37.167Z,100342.63
2023-04-15T16:09:38.677Z,100365.97
2023-04-15T16:11:40.389Z,100382.41
2023-04-15T16:13:41.991Z,100360.81
2023-04-15T16:15:43.397Z,100387.56
2023-04-15T16:17:45.001Z,100377.06
2023-04-15T16:20:00.233Z,100386.56
2023-04-15T16:22:02.921Z,100383.06
2023-04-15T16:24:04.396Z,100392.72
2023-04-15T16:26:05.914Z,100389.38
2023-04-15T16:28:18.650Z,100380.63
2023-04-15T16:30:26.975Z,100385.13
2023-04-15T16:32:28.446Z,100404.16
2023-04-15T16:34:29.851Z,100402.97
2023-04-15T16:36:31.541Z,100399.50
2023-04-15T16:38:32.996Z,100408.00
2023-04-15T16:40:34.466Z,100408.47
2023-04-15T16:42:36.089Z,100402.91
2023-04-15T16:44:37.530Z,100420.31
2023-04-15T16:46:40.831Z,100429.66
2023-04-15T16:48:42.524Z,100428.47
2023-04-15T16:50:43.950Z,100418.75
2023-04-15T16:52:45.390Z,100414.72
2023-04-15T16:54:46.977Z,100442.47
2023-04-15T16:56:48.406Z,100431.47
2023-04-15T16:58:50.426Z,100459.09
2023-04-15T17:00:52.417Z,100455.56
2023-04-15T17:02:55.365Z,100461.44
2023-04-15T17:04:56.875Z,100465.41
2023-04-15T17:06:58.317Z,100460.50
2023-04-15T17:08:59.744Z,100453.22
2023-04-15T17:11:01.164Z,100465.78
2023-04-15T17:13:02.867Z,100458.94
2023-04-15T17:15:04.709Z,100457.81
2023-04-15T17:17:06.285Z,100454.38
2023-04-15T17:19:08.089Z,100470.22
2023-04-15T17:21:09.520Z,100470.03
2023-04-15T17:23:10.925Z,100472.13
2023-04-15T17:25:13.916Z,100453.00
2023-04-15T17:27:15.377Z,100463.06
2023-04-15T17:29:16.889Z,100454.84
2023-04-15T17:31:19.861Z,100471.25
2023-04-15T17:33:56.517Z,100458.50
2023-04-15T17:35:42.768Z,100488.50
2023-04-15T17:37:46.114Z,100495.50
2023-04-15T17:39:47.565Z,100491.16
2023-04-15T17:41:48.972Z,100494.69
2023-04-15T17:43:50.991Z,100494.69
2023-04-15T17:45:52.429Z,100494.19
2023-04-15T17:47:53.884Z,100476.91
2023-04-15T17:49:55.999Z,100480.25
2023-04-15T17:51:57.497Z,100482.06
2023-04-15T17:53:58.999Z,100504.13
2023-04-15T17:56:00.720Z,100501.38
2023-04-15T17:58:02.150Z,100512.44
2023-04-15T18:00:03.998Z,100507.47
2023-04-15T18:02:05.713Z,100476.47
2023-04-15T18:04:07.644Z,100507.78
2023-04-15T18:06:11.440Z,100489.63
2023-04-15T18:08:13.262Z,100504.81
2023-04-15T18:10:14.725Z,100520.31
2023-04-15T18:12:16.393Z,100513.19
2023-04-15T18:14:33.077Z,100516.03
2023-04-15T18:16:35.537Z,100532.81
2023-04-15T18:18:36.991Z,100532.66
2023-04-15T18:20:38.581Z,100534.75
2023-04-15T18:22:40.050Z,100535.16
2023-04-15T18:24:41.657Z,100543.13
2023-04-15T18:26:43.341Z,100521.66
2023-04-15T18:28:44.852Z,100543.56
2023-04-15T18:30:46.242Z,100549.31
2023-04-15T18:32:47.775Z,100550.50
2023-04-15T18:34:49.197Z,100554.47
2023-04-15T18:36:50.610Z,100556.72
2023-04-15T18:38:52.463Z,100542.69
2023-04-15T18:40:53.854Z,100557.50
2023-04-15T18:42:55.370Z,100536.97
2023-04-15T18:44:57.074Z,100554.00
2023-04-15T18:46:58.524Z,100548.34
2023-04-15T18:48:59.949Z,100533.13
2023-04-15T18:51:01.688Z,100521.88
2023-04-15T18:53:03.069Z,100557.41
2023-04-15T18:55:04.899Z,100563.41
2023-04-15T18:57:06.432Z,100544.34
2023-04-15T18:59:08.081Z,100562.50
2023-04-15T19:01:28.473Z,100564.69
2023-04-15T19:03:30.169Z,100565.03
2023-04-15T19:05:31.658Z,100552.03
2023-04-15T19:07:33.194Z,100575.78
2023-04-15T19:09:35.250Z,100559.38
2023-04-15T19:11:36.642Z,100587.09
2023-04-15T19:13:38.076Z,100581.94
2023-04-15T19:15:39.646Z,100572.38
2023-04-15T19:17:41.204Z,100524.59
2023-04-15T19:19:42.664Z,100585.72
2023-04-15T19:21:44.382Z,100573.22
2023-04-15T19:23:45.823Z,100576.03
2023-04-15T19:25:47.266Z,100578.44
2023-04-15T19:27:48.991Z,100581.28
2023-04-15T19:29:50.416Z,100582.31
2023-04-15T19:31:51.814Z,100583.53
2023-04-15T19:33:53.303Z,100587.47
2023-04-15T19:35:54.729Z,100585.50
2023-04-15T19:37:56.204Z,100589.16
2023-04-15T19:39:57.816Z,100573.28
2023-04-15T19:41:59.313Z,100587.13
2023-04-15T19:44:00.735Z,100591.09
2023-04-15T19:46:02.477Z,100575.19
2023-04-15T19:48:04.640Z,100586.53
2023-04-15T19:50:06.640Z,100602.28
2023-04-15T19:52:08.335Z,100567.06
2023-04-15T19:54:09.811Z,100602.19
2023-04-15T19:56:11.235Z,100595.75
2023-04-15T19:58:12.902Z,100587.56
2023-04-15T20:00:14.414Z,100598.66
2023-04-15T20:02:15.938Z,100604.25
2023-04-15T20:04:17.569Z,100600.81
2023-04-15T20:06:19.233Z,100604.88
2023-04-15T20:08:20.623Z,100610.19
2023-04-15T20:10:22.923Z,100587.47
2023-04-15T20:12:50.509Z,100612.47
2023-04-15T20:14:45.865Z,100616.47
2023-04-15T20:16:47.349Z,100620.41
2023-04-15T20:18:48.817Z,100616.59
2023-04-15T20:20:50.246Z,100627.50
2023-04-15T20:22:51.757Z,100614.88
2023-04-15T20:24:53.231Z,100628.50
2023-04-15T20:26:54.681Z,100624.28
2023-04-15T20:28:56.745Z,100640.56
2023-04-15T20:30:58.944Z,100636.53
2023-04-15T20:33:00.476Z,100636.81
2023-04-15T20:35:03.170Z,100646.09
2023-04-15T20:37:04.782Z,100627.69
2023-04-15T20:39:06.290Z,100648.25
2023-04-15T20:41:08.004Z,100639.00
2023-04-15T20:43:09.621Z,100638.00
2023-04-15T20:45:11.300Z,100651.84
2023-04-15T20:47:13.373Z,100617.31
2023-04-15T20:49:14.956Z,100649.41
2023-04-15T20:51:16.396Z,100650.38
2023-04-15T20:53:18.014Z,100660.44
2023-04-15T20:55:19.610Z,100653.16
2023-04-15T20:57:21.040Z,100633.53
2023-04-15T20:59:22.608Z,100652.97
2023-04-15T21:01:24.276Z,100647.13
2023-04-15T21:03:25.810Z,100657.66
2023-04-15T21:05:27.518Z,100658.38
2023-04-15T21:07:29.070Z,100665.00
2023-04-15T21:09:30.496Z,100643.88
2023-04-15T21:11:53.226Z,100667.16
2023-04-15T21:13:54.124Z,100636.59
2023-04-15T21:15:55.583Z,100630.06
2023-04-15T21:17:57.227Z,100669.44
2023-04-15T21:19:59.114Z,100645.38
2023-04-15T21:22:00.561Z,100672.34
2023-04-15T21:24:02.239Z,100671.72
2023-04-15T21:26:03.736Z,100671.00
2023-04-15T21:28:05.222Z,100671.38
2023-04-15T21:30:07.445Z,100675.84
2023-04-15T21:32:09.041Z,100670.44
2023-04-15T21:34:10.506Z,100673.03
2023-04-15T21:36:11.985Z,100669.22
2023-04-15T21:38:13.904Z,100671.13
2023-04-15T21:40:15.538Z,100677.00
2023-04-15T21:42:17.170Z,100676.59
2023-04-15T21:44:18.746Z,100663.31
2023-04-15T21:46:22.563Z,100672.78
2023-04-15T21:48:26.284Z,100682.28
2023-04-15T21:50:27.726Z,100680.97
2023-04-15T21:52:29.176Z,100658.44
2023-04-15T21:54:30.833Z,100685.44
2023-04-15T21:56:32.778Z,100696.19
2023-04-15T21:58:35.042Z,100681.41
2023-04-15T22:00:36.636Z,100691.16
2023-04-15T22:02:38.201Z,100693.88
2023-04-15T22:04:39.791Z,100698.41
2023-04-15T22:06:41.275Z,100702.78
2023-04-15T22:08:55.193Z,100690.34
2023-04-15T22:10:58.064Z,100698.84
2023-04-15T22:12:59.679Z,100707.03
2023-04-15T22:15:01.529Z,100702.19
2023-04-15T22:17:03.142Z,100714.00
2023-04-15T22:19:04.924Z,100711.81
2023-04-15T22:21:06.544Z,100694.81
2023-04-15T22:23:08.188Z,100701.38
2023-04-15T22:25:10.036Z,100708.31
2023-04-15T22:27:11.484Z,100702.91
2023-04-15T22:29:13.017Z,100701.66
2023-04-15T22:31:14.634Z,100699.66
2023-04-15T22:33:16.141Z,100708.69
2023-04-15T22:35:17.714Z,100689.06
2023-04-15T22:37:19.328Z,100700.75
2023-04-15T22:39:20.849Z,100694.94
2023-04-15T22:41:22.270Z,100713.53
2023-04-15T22:43:23.914Z,100699.09
2023-04-15T22:45:25.467Z,100700.28
2023-04-15T22:47:26.981Z,100705.47
2023-04-15T22:49:28.459Z,100706.47
2023-04-15T22:51:30.126Z,100695.34
2023-04-15T22:53:31.911Z,100699.34
2023-04-15T22:55:33.550Z,100700.88
2023-04-15T22:57:35.059Z,100715.69
2023-04-15T22:59:36.513Z,100686.16
2023-04-15T23:01:38.340Z,100726.22
2023-04-15T23:03:56.347Z,100711.84
2023-04-15T23:05:59.189Z,100697.41
2023-04-15T23:08:00.729Z,100722.19
2023-04-15T23:10:02.218Z,100723.00
2023-04-15T23:12:04.101Z,100724.47
2023-04-15T23:14:05.856Z,100731.69
2023-04-15T23:16:07.561Z,100703.16